Time;durP1;ratioP1;P1;durP2;ratioP2;P2;SDS_P1;SDS_P2;PMS_P1;PMS_P2;Temp;Humidity;BMP_temperature;BMP_pressure;BME280_temperature;BME280_humidity;BME280_pressure;Samples;Min_cycle;Max_cycle;Signal;HPM_P1;HPM_P2
2022/10/06 00:02:07;;;;;;;3.10;2.90;;;17.70;51.20;;;;;;20517;6838;278680;-87
2022/10/06 00:04:32;;;;;;;2.70;2.60;;;17.80;50.60;;;;;;20756;6838;117594;-87
2022/10/06 00:06:59;;;;;;;2.97;2.78;;;17.60;51.00;;;;;;20533;6838;310814;-87
2022/10/06 00:09:24;;;;;;;3.23;2.83;;;17.50;50.90;;;;;;20746;6838;117233;-87
2022/10/06 00:11:50;;;;;;;3.17;2.65;;;17.30;51.20;;;;;;20715;6838;117221;-87
2022/10/06 00:14:15;;;;;;;2.55;2.45;;;17.00;51.80;;;;;;20743;6838;117902;-87
2022/10/06 00:16:41;;;;;;;2.97;2.78;;;16.70;52.30;;;;;;20489;6838;308540;-87
2022/10/06 00:19:07;;;;;;;2.45;2.35;;;16.80;52.00;;;;;;20531;6838;279805;-87
2022/10/06 00:21:32;;;;;;;2.87;2.67;;;17.10;51.60;;;;;;20736;6838;117654;-87
2022/10/06 00:23:58;;;;;;;2.80;2.60;;;17.00;51.70;;;;;;20512;6838;282683;-87
2022/10/06 00:26:24;;;;;;;2.80;2.60;;;16.90;52.50;;;;;;20745;6838;117913;-87
2022/10/06 00:28:50;;;;;;;2.40;2.30;;;16.80;51.80;;;;;;20738;6838;117239;-87
2022/10/06 00:31:18;;;;;;;2.80;2.60;;;16.30;52.70;;;;;;20741;6838;117221;-87
2022/10/06 00:33:41;;;;;;;2.80;2.60;;;16.30;52.70;;;;;;20733;6836;117804;-87
2022/10/06 00:36:08;;;;;;;3.05;2.87;;;16.10;53.10;;;;;;20735;6838;117632;-87
2022/10/06 00:38:35;;;;;;;3.33;2.93;;;15.70;53.70;;;;;;20746;6838;118195;-87
2022/10/06 00:41:00;;;;;;;2.60;2.43;;;15.70;53.60;;;;;;20750;6838;123671;-87
2022/10/06 00:43:46;;;;;;;3.03;2.83;;;15.60;53.90;;;;;;20751;6838;119430;-87
2022/10/06 00:46:32;;;;;;;3.00;2.80;;;15.50;54.10;;;;;;20512;6838;308460;-87
2022/10/06 00:49:03;;;;;;;2.83;2.73;;;15.80;54.20;;;;;;20733;6838;117237;-86
2022/10/06 00:51:30;;;;;;;2.90;2.80;;;15.60;54.30;;;;;;20727;6838;117167;-87
2022/10/06 00:53:56;;;;;;;3.08;2.87;;;15.60;54.20;;;;;;20495;6838;308889;-86
2022/10/06 00:56:21;;;;;;;3.00;2.80;;;15.80;54.30;;;;;;20737;6838;117450;-86
2022/10/06 00:58:46;;;;;;;2.90;2.80;;;15.80;54.10;;;;;;20741;6838;117351;-86
2022/10/06 01:01:12;;;;;;;3.28;3.00;;;15.60;54.40;;;;;;20518;6838;301305;-86
2022/10/06 01:03:41;;;;;;;3.20;2.90;;;15.80;55.00;;;;;;20741;6838;123006;-86
2022/10/06 01:06:07;;;;;;;3.37;3.03;;;15.80;55.00;;;;;;20707;6838;117989;-86
2022/10/06 01:08:32;;;;;;;3.50;3.20;;;15.70;55.40;;;;;;20744;6838;118486;-86
2022/10/06 01:10:59;;;;;;;3.20;2.87;;;15.50;56.10;;;;;;20734;6838;117116;-86
2022/10/06 01:13:24;;;;;;;5.40;2.93;;;15.50;56.10;;;;;;20737;6838;117604;-86
2022/10/06 01:16:07;;;;;;;3.60;3.17;;;15.40;56.20;;;;;;20525;6838;317098;-86
2022/10/06 01:18:32;;;;;;;3.33;3.13;;;15.70;56.00;;;;;;20684;6838;118054;-87
2022/10/06 01:21:08;;;;;;;3.60;3.30;;;15.80;55.60;;;;;;20523;6838;308832;-86
2022/10/06 01:23:33;;;;;;;3.67;2.90;;;16.10;55.10;;;;;;20725;6838;124012;-87
2022/10/06 01:25:59;;;;;;;3.30;3.03;;;16.00;54.80;;;;;;20716;6838;124422;-86
2022/10/06 01:28:25;;;;;;;3.60;3.30;;;15.80;55.00;;;;;;20731;6838;117370;-87
2022/10/06 01:30:51;;;;;;;3.30;3.10;;;15.60;55.30;;;;;;20526;6838;282717;-86
2022/10/06 01:33:16;;;;;;;4.63;2.97;;;15.80;55.00;;;;;;20726;6838;117928;-87
2022/10/06 01:35:41;;;;;;;3.65;3.45;;;15.80;54.90;;;;;;20758;6838;117136;-86
2022/10/06 01:38:07;;;;;;;3.43;3.20;;;15.60;54.70;;;;;;20740;6838;120272;-86
2022/10/06 01:40:33;;;;;;;3.40;3.10;;;15.20;55.60;;;;;;20740;6838;117367;-86
2022/10/06 01:42:59;;;;;;;3.57;3.23;;;15.20;55.60;;;;;;20523;6838;278113;-86
2022/10/06 01:45:24;;;;;;;3.30;3.10;;;15.40;55.30;;;;;;20534;6836;279272;-87
2022/10/06 01:47:50;;;;;;;3.15;2.95;;;15.80;54.30;;;;;;20741;6838;117160;-86
2022/10/06 01:50:16;;;;;;;2.93;2.73;;;15.80;54.30;;;;;;20740;6838;118417;-87
2022/10/06 01:52:41;;;;;;;3.70;2.90;;;15.50;54.60;;;;;;20530;6838;319769;-86
2022/10/06 01:55:07;;;;;;;3.00;2.80;;;15.70;54.10;;;;;;20740;6838;116256;-87
2022/10/06 01:57:32;;;;;;;4.43;4.10;;;15.60;54.10;;;;;;20733;6838;117062;-86
2022/10/06 01:59:58;;;;;;;3.50;3.20;;;15.50;55.10;;;;;;20497;6838;309455;-86
2022/10/06 02:02:24;;;;;;;2.30;2.20;;;15.70;54.20;;;;;;20742;6838;117351;-87
2022/10/06 02:04:49;;;;;;;2.80;2.60;;;15.70;54.10;;;;;;20533;6838;308952;-87
2022/10/06 02:07:16;;;;;;;2.97;2.78;;;15.90;53.20;;;;;;20533;6838;308167;-86
2022/10/06 02:09:42;;;;;;;2.93;2.70;;;16.20;52.50;;;;;;20744;6838;117159;-87
2022/10/06 02:12:08;;;;;;;2.75;2.65;;;16.10;52.70;;;;;;20510;6838;308517;-86
2022/10/06 02:14:34;;;;;;;2.47;2.37;;;16.20;52.30;;;;;;20739;6838;118017;-86
2022/10/06 02:17:00;;;;;;;2.60;2.45;;;16.10;52.50;;;;;;20530;6838;309345;-86
2022/10/06 02:19:25;;;;;;;2.78;2.58;;;16.20;52.00;;;;;;20523;6838;338177;-87
2022/10/06 02:21:52;;;;;;;2.70;2.50;;;16.40;51.60;;;;;;20524;6838;312323;-86
2022/10/06 02:24:18;;;;;;;2.60;2.50;;;16.60;51.10;;;;;;20525;6838;308070;-86
2022/10/06 02:26:43;;;;;;;3.00;2.80;;;16.80;51.00;;;;;;20533;6838;308893;-86
2022/10/06 02:29:11;;;;;;;2.53;2.40;;;16.70;51.50;;;;;;20735;6838;117636;-86
2022/10/06 02:31:37;;;;;;;4.77;2.87;;;16.70;51.40;;;;;;20737;6838;117312;-86
2022/10/06 02:34:02;;;;;;;3.90;2.77;;;16.30;52.20;;;;;;20711;6838;117650;-86
2022/10/06 02:36:28;;;;;;;3.25;2.92;;;15.90;52.90;;;;;;20752;6838;118551;-86
2022/10/06 02:38:53;;;;;;;4.53;2.87;;;15.70;53.50;;;;;;20754;6838;117495;-87
2022/10/06 02:41:20;;;;;;;3.50;3.20;;;15.30;54.50;;;;;;20744;6838;117584;-86
2022/10/06 02:43:46;;;;;;;5.37;3.23;;;15.30;54.50;;;;;;20737;6838;117619;-86
2022/10/06 02:46:11;;;;;;;4.40;3.08;;;15.10;54.90;;;;;;20507;6838;315214;-86
2022/10/06 02:48:39;;;;;;;5.68;3.37;;;15.40;55.00;;;;;;20742;6838;117297;-86
2022/10/06 02:51:11;;;;;;;3.97;3.23;;;15.40;54.70;;;;;;20534;6838;278401;-86
2022/10/06 02:53:36;;;;;;;4.00;3.20;;;15.50;54.20;;;;;;20536;6838;307423;-86
2022/10/06 02:56:14;;;;;;;3.20;3.00;;;15.80;53.30;;;;;;20719;6836;118557;-86
2022/10/06 02:58:41;;;;;;;3.20;2.90;;;15.70;53.50;;;;;;20403;6837;294587;-86
2022/10/06 03:01:07;;;;;;;2.87;2.75;;;15.60;53.80;;;;;;20713;6838;117612;-86
2022/10/06 03:03:36;;;;;;;3.33;3.13;;;15.50;53.70;;;;;;20730;6838;120045;-87
2022/10/06 03:06:02;;;;;;;3.50;3.15;;;15.40;54.60;;;;;;20507;6838;311018;-86
2022/10/06 03:08:28;;;;;;;2.97;2.77;;;15.40;54.40;;;;;;20706;6838;117305;-86
2022/10/06 03:11:06;;;;;;;2.60;2.50;;;15.30;55.00;;;;;;20739;6838;117869;-86
2022/10/06 03:13:30;;;;;;;3.40;3.10;;;15.10;54.70;;;;;;20519;6838;308479;-87
2022/10/06 03:15:56;;;;;;;4.33;3.03;;;15.20;54.10;;;;;;20715;6838;118520;-86
2022/10/06 03:18:23;;;;;;;3.43;2.70;;;15.20;54.10;;;;;;20736;6838;117771;-86
2022/10/06 03:20:50;;;;;;;3.30;3.10;;;15.00;54.40;;;;;;20529;6838;280776;-88
2022/10/06 03:23:15;;;;;;;3.57;2.90;;;15.10;54.10;;;;;;20737;6838;117080;-86
2022/10/06 03:25:41;;;;;;;3.12;2.92;;;15.10;54.20;;;;;;20534;6838;278660;-88
2022/10/06 03:28:08;;;;;;;3.05;2.80;;;15.20;54.00;;;;;;20731;6838;117550;-86
2022/10/06 03:30:35;;;;;;;2.90;2.70;;;15.10;54.00;;;;;;20746;6838;117264;-86
2022/10/06 03:33:00;;;;;;;2.93;2.73;;;14.60;55.40;;;;;;20747;6838;117534;-87
2022/10/06 03:35:25;;;;;;;3.40;3.20;;;14.60;54.70;;;;;;20536;6838;289167;-86
2022/10/06 03:37:51;;;;;;;3.47;3.17;;;14.80;54.70;;;;;;20517;6838;308262;-87
2022/10/06 03:40:17;;;;;;;3.20;2.90;;;15.20;53.90;;;;;;20539;6838;282393;-87
2022/10/06 03:42:42;;;;;;;2.60;2.40;;;15.40;53.10;;;;;;20743;6838;117772;-87
2022/10/06 03:45:08;;;;;;;3.00;2.80;;;15.30;53.40;;;;;;20531;6838;312294;-87
2022/10/06 03:47:34;;;;;;;2.90;2.60;;;15.60;53.80;;;;;;20525;6838;308244;-87
2022/10/06 03:50:00;;;;;;;3.13;2.80;;;15.60;53.00;;;;;;20517;6838;278517;-87
2022/10/06 03:52:26;;;;;;;3.10;2.85;;;15.80;53.00;;;;;;20530;6838;297182;-87
2022/10/06 03:54:51;;;;;;;2.53;2.43;;;15.90;52.00;;;;;;20748;6838;117598;-86
2022/10/06 03:57:17;;;;;;;2.92;2.72;;;15.70;52.30;;;;;;20530;6838;337635;-87
2022/10/06 03:59:42;;;;;;;2.93;2.70;;;15.70;52.40;;;;;;20743;6838;117628;-86
2022/10/06 04:02:10;;;;;;;2.90;2.70;;;15.60;52.50;;;;;;20515;6838;324698;-87
2022/10/06 04:04:34;;;;;;;2.87;2.67;;;15.60;52.50;;;;;;20743;6838;123112;-86
2022/10/06 04:07:00;;;;;;;2.87;2.67;;;15.50;52.80;;;;;;20736;6836;118346;-87
2022/10/06 04:09:25;;;;;;;2.73;2.63;;;15.30;53.30;;;;;;20746;6837;117034;-86
2022/10/06 04:11:52;;;;;;;3.57;2.77;;;15.00;53.70;;;;;;20742;6838;117011;-86
2022/10/06 04:14:18;;;;;;;22.13;18.03;;;14.80;54.00;;;;;;20596;6838;117288;-87
2022/10/06 04:16:43;;;;;;;24.73;12.00;;;14.70;54.30;;;;;;20757;6838;117733;-87
2022/10/06 04:19:09;;;;;;;3.80;3.35;;;14.50;54.50;;;;;;20739;6838;117479;-87
2022/10/06 04:21:37;;;;;;;3.58;2.85;;;14.40;54.70;;;;;;20534;6838;316470;-86
2022/10/06 04:24:01;;;;;;;3.25;2.97;;;14.80;54.50;;;;;;20691;6838;117656;-85
2022/10/06 04:26:26;;;;;;;3.90;3.60;;;14.70;54.40;;;;;;20533;6838;311947;-87
2022/10/06 04:28:52;;;;;;;3.70;3.08;;;15.00;54.00;;;;;;20739;6838;117135;-87
2022/10/06 04:31:18;;;;;;;3.60;3.40;;;15.00;53.90;;;;;;20745;6838;117179;-86
2022/10/06 04:33:44;;;;;;;3.40;3.10;;;14.80;54.20;;;;;;20527;6838;307410;-86
2022/10/06 04:36:09;;;;;;;3.60;3.30;;;15.00;53.90;;;;;;20512;6838;281847;-86
2022/10/06 04:38:34;;;;;;;3.20;2.70;;;15.40;53.30;;;;;;20729;6838;118034;-86
2022/10/06 04:41:10;;;;;;;3.50;2.87;;;15.30;53.40;;;;;;20534;6838;279516;-87
2022/10/06 04:43:35;;;;;;;2.92;2.70;;;15.40;53.30;;;;;;20521;6838;307998;-85
2022/10/06 04:46:01;;;;;;;4.27;3.00;;;15.70;52.30;;;;;;20707;6838;117240;-87
2022/10/06 04:48:26;;;;;;;3.30;3.00;;;15.70;52.60;;;;;;20522;6838;337835;-87
2022/10/06 04:50:59;;;;;;;3.13;2.50;;;15.70;52.40;;;;;;20697;6838;123420;-85
2022/10/06 04:53:25;;;;;;;2.80;2.60;;;15.60;52.60;;;;;;20512;6838;278183;-87
2022/10/06 04:56:11;;;;;;;2.70;2.50;;;16.00;51.80;;;;;;20527;6838;283576;-88
2022/10/06 04:58:39;;;;;;;2.93;2.73;;;16.00;51.80;;;;;;20392;6838;341762;-87
2022/10/06 05:01:15;;;;;;;2.55;2.35;;;16.30;51.40;;;;;;20533;6838;278852;-86
2022/10/06 05:03:40;;;;;;;2.60;2.40;;;16.50;50.90;;;;;;20526;6838;300745;-84
2022/10/06 05:06:11;;;;;;;2.80;2.50;;;16.70;50.60;;;;;;20490;6838;309453;-86
2022/10/06 05:08:38;;;;;;;2.43;2.33;;;16.70;50.30;;;;;;20744;6838;117598;-85
2022/10/06 05:11:04;;;;;;;6.40;2.60;;;16.50;50.80;;;;;;20739;6838;117459;-90
2022/10/06 05:13:33;;;;;;;2.78;2.33;;;16.10;51.50;;;;;;20737;6838;117028;-86
2022/10/06 05:16:00;;;;;;;5.73;2.40;;;15.80;52.10;;;;;;20726;6838;152138;-83
2022/10/06 05:18:26;;;;;;;3.10;2.90;;;15.50;52.50;;;;;;20750;6836;117487;-82
2022/10/06 05:21:02;;;;;;;2.50;2.40;;;15.30;52.90;;;;;;20750;6837;118088;-84
2022/10/06 05:23:26;;;;;;;2.93;2.63;;;15.10;53.20;;;;;;20528;6838;278159;-83
2022/10/06 05:25:51;;;;;;;2.80;2.60;;;15.40;53.20;;;;;;20516;6838;317486;-84
2022/10/06 05:28:18;;;;;;;3.47;2.72;;;15.70;52.50;;;;;;20528;6838;279172;-85
2022/10/06 05:30:48;;;;;;;3.30;2.90;;;16.00;52.00;;;;;;20534;6838;329189;-83
2022/10/06 05:33:14;;;;;;;2.50;2.40;;;16.20;51.70;;;;;;20585;6838;117569;-86
2022/10/06 05:35:39;;;;;;;2.83;2.63;;;16.00;51.90;;;;;;20742;6838;120900;-84
2022/10/06 05:38:10;;;;;;;2.92;2.72;;;15.60;53.00;;;;;;20472;6838;338498;-84
2022/10/06 05:40:33;;;;;;;2.97;2.37;;;15.70;52.50;;;;;;20738;6838;117488;-84
2022/10/06 05:42:58;;;;;;;2.80;2.50;;;15.60;52.70;;;;;;20741;6838;117280;-85
2022/10/06 05:45:24;;;;;;;3.50;3.17;;;15.40;53.20;;;;;;20533;6838;335204;-84
2022/10/06 05:47:49;;;;;;;3.03;2.80;;;15.50;53.10;;;;;;20538;6838;282766;-85
2022/10/06 05:50:15;;;;;;;2.73;2.63;;;15.90;53.00;;;;;;20729;6838;117604;-85
2022/10/06 05:52:41;;;;;;;2.92;2.72;;;15.80;52.90;;;;;;20749;6838;117165;-84
2022/10/06 05:55:06;;;;;;;5.32;3.15;;;15.60;53.30;;;;;;20538;6838;277622;-83
2022/10/06 05:57:32;;;;;;;3.03;2.83;;;15.70;53.10;;;;;;20729;6838;117952;-84
2022/10/06 05:59:57;;;;;;;3.20;3.00;;;15.70;53.20;;;;;;20514;6838;333000;-84
2022/10/06 06:02:24;;;;;;;3.15;2.67;;;15.90;53.30;;;;;;20761;6838;121906;-84
2022/10/06 06:04:49;;;;;;;4.53;3.40;;;15.90;53.30;;;;;;20751;6838;117663;-83
2022/10/06 06:07:15;;;;;;;3.10;2.90;;;15.70;53.70;;;;;;20542;6838;278925;-87
2022/10/06 06:09:41;;;;;;;5.80;3.30;;;15.90;54.10;;;;;;20530;6838;280971;-87
2022/10/06 06:12:07;;;;;;;3.83;3.42;;;16.80;53.30;;;;;;20506;6838;278471;-87
2022/10/06 06:17:19;;;;;;;4.40;3.27;;;16.80;53.10;;;;;;20740;6838;118363;-87
2022/10/06 06:19:44;;;;;;;4.77;3.77;;;16.60;53.30;;;;;;20742;6838;118508;-87
2022/10/06 06:22:10;;;;;;;6.30;3.30;;;16.50;53.50;;;;;;20718;6838;117287;-89
2022/10/06 06:24:36;;;;;;;3.73;3.30;;;16.30;53.50;;;;;;20747;6838;118117;-87
2022/10/06 06:27:01;;;;;;;3.90;3.60;;;16.20;53.60;;;;;;20533;6838;278366;-88
2022/10/06 06:29:27;;;;;;;7.23;3.90;;;16.50;52.70;;;;;;20539;6836;308784;-87
2022/10/06 06:31:52;;;;;;;6.37;5.83;;;16.90;51.60;;;;;;20731;6837;117610;-87
2022/10/06 06:34:18;;;;;;;3.70;3.40;;;17.00;51.80;;;;;;20743;6838;116542;-88
2022/10/06 06:36:50;;;;;;;6.68;4.00;;;16.80;52.00;;;;;;20766;6838;66519;-88
2022/10/06 06:39:11;;;;;;;3.77;3.47;;;16.70;52.40;;;;;;20731;6838;117403;-88
2022/10/06 06:41:38;;;;;;;4.10;3.70;;;16.50;52.50;;;;;;20608;6838;306485;-87
2022/10/06 06:44:03;;;;;;;3.72;3.10;;;16.80;51.80;;;;;;20727;6838;118149;-88
2022/10/06 06:46:30;;;;;;;3.20;2.90;;;16.80;51.80;;;;;;20755;6838;117397;-88
2022/10/06 06:48:55;;;;;;;3.30;3.10;;;16.60;52.40;;;;;;20744;6838;122312;-88
2022/10/06 06:51:22;;;;;;;3.67;2.97;;;16.60;52.40;;;;;;20754;6838;117640;-88
2022/10/06 06:53:46;;;;;;;3.00;2.80;;;16.50;52.60;;;;;;20745;6838;117680;-88
2022/10/06 06:56:12;;;;;;;3.12;2.90;;;16.50;52.80;;;;;;20737;6838;119647;-88
2022/10/06 06:58:37;;;;;;;6.53;3.03;;;16.50;52.90;;;;;;20751;6838;67825;-88
2022/10/06 07:01:12;;;;;;;3.50;3.20;;;16.50;52.90;;;;;;20542;6838;278900;-86
2022/10/06 07:03:35;;;;;;;34.27;7.10;;;16.80;52.40;;;;;;20733;6838;117132;-85
2022/10/06 07:06:07;;;;;;;27.73;5.27;;;17.00;52.40;;;;;;20688;6838;116565;-88
2022/10/06 07:08:28;;;;;;;17.10;5.30;;;17.00;52.50;;;;;;20514;6838;278504;-87
2022/10/06 07:10:56;;;;;;;6.03;3.73;;;17.30;51.80;;;;;;20732;6838;118110;-88
2022/10/06 07:13:21;;;;;;;31.40;6.40;;;17.40;52.00;;;;;;20733;6838;117175;-88
2022/10/06 07:26:49;;;;;;;11.53;4.10;;;18.70;49.90;;;;;;20721;6838;117525;-87
2022/10/06 07:29:15;;;;;;;77.77;12.00;;;18.60;50.00;;;;;;20727;6838;117814;-87
2022/10/06 07:31:41;;;;;;;46.97;8.77;;;18.40;50.40;;;;;;20505;6838;281365;-88
2022/10/06 07:34:06;;;;;;;34.50;6.43;;;18.50;49.90;;;;;;20715;6838;117428;-89
2022/10/06 07:36:31;;;;;;;17.20;4.37;;;18.50;50.10;;;;;;20745;6838;118083;-87
2022/10/06 07:38:58;;;;;;;10.10;3.70;;;18.30;50.80;;;;;;20751;6838;123238;-89
2022/10/06 07:41:23;;;;;;;5.03;3.80;;;18.30;50.70;;;;;;20752;6836;117845;-87
2022/10/06 07:43:53;;;;;;;9.23;4.13;;;18.20;50.90;;;;;;20558;6837;307487;-87
2022/10/06 07:46:17;;;;;;;12.90;4.40;;;18.50;50.30;;;;;;20518;6838;278687;-87
2022/10/06 07:48:45;;;;;;;10.15;4.28;;;18.80;49.60;;;;;;20545;6838;307535;-87
2022/10/06 07:51:15;;;;;;;9.98;4.32;;;19.20;48.90;;;;;;20532;6838;308417;-87
2022/10/06 07:53:41;;;;;;;6.57;3.53;;;19.50;48.20;;;;;;20732;6838;118630;-88
2022/10/06 07:56:06;;;;;;;8.07;3.97;;;19.40;48.50;;;;;;20515;6838;337175;-89
2022/10/06 07:58:32;;;;;;;42.10;7.80;;;19.40;48.00;;;;;;20743;6838;117819;-91
2022/10/06 08:00:57;;;;;;;47.73;9.13;;;19.30;48.50;;;;;;20532;6838;291582;-88
2022/10/06 08:03:24;;;;;;;7.87;3.90;;;19.30;48.20;;;;;;20441;6838;326410;-86
2022/10/06 08:05:48;;;;;;;14.30;4.95;;;19.50;47.90;;;;;;20523;6838;308116;-87
2022/10/06 08:08:15;;;;;;;6.53;3.97;;;19.50;48.20;;;;;;20698;6838;118318;-88
2022/10/06 08:10:41;;;;;;;7.93;4.00;;;19.40;48.70;;;;;;20536;6838;307905;-88
2022/10/06 08:13:07;;;;;;;5.87;3.80;;;19.40;48.00;;;;;;20535;6838;311957;-89
2022/10/06 08:15:32;;;;;;;5.40;3.77;;;19.60;47.50;;;;;;20753;6838;117701;-90
2022/10/06 08:17:58;;;;;;;3.93;3.43;;;19.40;47.90;;;;;;20732;6838;117244;-89
2022/10/06 08:20:26;;;;;;;7.93;4.00;;;19.10;48.50;;;;;;20530;6838;306620;-90
2022/10/06 08:22:50;;;;;;;7.72;3.90;;;19.20;48.30;;;;;;20541;6838;278991;-88
2022/10/06 08:25:16;;;;;;;5.18;3.30;;;19.40;48.00;;;;;;20755;6838;117968;-89
2022/10/06 08:27:42;;;;;;;25.00;4.37;;;19.30;48.30;;;;;;20745;6838;120713;-89
2022/10/06 08:30:07;;;;;;;4.37;3.50;;;19.10;48.80;;;;;;20518;6838;279383;-91
2022/10/06 08:32:32;;;;;;;4.33;3.30;;;19.10;48.60;;;;;;20772;6838;117309;-90
2022/10/06 08:34:58;;;;;;;6.18;3.67;;;19.10;48.80;;;;;;20561;6838;340611;-89
2022/10/06 08:37:26;;;;;;;7.10;3.30;;;19.20;48.60;;;;;;20781;6838;117397;-89
2022/10/06 08:39:49;;;;;;;5.07;3.50;;;19.10;48.80;;;;;;20554;6838;337550;-90
2022/10/06 08:42:15;;;;;;;4.70;3.00;;;19.30;48.60;;;;;;20765;6838;117508;-88
2022/10/06 08:44:45;;;;;;;3.80;3.30;;;19.20;48.80;;;;;;20561;6838;277592;-88
2022/10/06 08:47:17;;;;;;;3.73;3.00;;;19.30;48.50;;;;;;20771;6838;118124;-89
2022/10/06 08:49:45;;;;;;;4.40;3.53;;;19.20;48.70;;;;;;20568;6838;279156;-88
2022/10/06 08:52:19;;;;;;;3.60;3.30;;;19.30;48.70;;;;;;20556;6838;446655;-87
2022/10/06 08:54:43;;;;;;;4.50;2.93;;;19.60;48.20;;;;;;20757;6836;117139;-87
2022/10/06 08:57:20;;;;;;;4.17;3.70;;;19.40;49.00;;;;;;20777;6837;116153;-87
2022/10/06 08:59:45;;;;;;;94.90;79.97;;;19.40;49.00;;;;;;20546;6838;329389;-88
2022/10/06 09:02:21;;;;;;;57.17;51.07;;;19.50;48.60;;;;;;20756;6838;120527;-87
2022/10/06 09:04:49;;;;;;;8.77;7.87;;;19.60;48.90;;;;;;20554;6838;279117;-88
2022/10/06 09:07:13;;;;;;;6.70;6.20;;;20.00;48.00;;;;;;20547;6838;279739;-87
2022/10/06 09:09:53;;;;;;;6.47;5.87;;;20.00;48.00;;;;;;20541;6838;308874;-87
2022/10/06 09:12:29;;;;;;;6.40;5.90;;;20.20;47.60;;;;;;20760;6838;116181;-87
2022/10/06 09:15:03;;;;;;;4.87;4.37;;;20.00;47.90;;;;;;20785;6838;120247;-87
2022/10/06 09:17:30;;;;;;;5.87;5.07;;;19.50;49.10;;;;;;20773;6838;116799;-87
2022/10/06 09:20:19;;;;;;;11.25;6.35;;;19.50;49.10;;;;;;20529;6838;306123;-86
2022/10/06 09:22:40;;;;;;;16.63;15.17;;;19.60;48.50;;;;;;20295;6838;67821;-89
2022/10/06 09:25:24;;;;;;;7.30;6.70;;;19.60;49.10;;;;;;20809;6838;116399;-89
2022/10/06 09:27:49;;;;;;;11.10;10.00;;;19.40;49.40;;;;;;20795;6838;116270;-87
2022/10/06 09:30:16;;;;;;;8.83;8.13;;;19.20;49.80;;;;;;20791;6838;117911;-88
2022/10/06 09:32:45;;;;;;;7.87;7.28;;;19.10;50.10;;;;;;20601;6838;308282;-88
2022/10/06 09:35:11;;;;;;;5.83;5.17;;;19.30;49.70;;;;;;20596;6838;307602;-88
2022/10/06 09:37:56;;;;;;;6.43;5.93;;;19.70;49.10;;;;;;20805;6838;68040;-90
2022/10/06 09:40:32;;;;;;;5.37;4.97;;;19.70;49.20;;;;;;20717;6838;67835;-89
2022/10/06 09:42:58;;;;;;;4.73;4.40;;;19.50;49.50;;;;;;20823;6838;68299;-88
2022/10/06 09:45:23;;;;;;;5.03;4.60;;;19.40;49.80;;;;;;20826;6838;118603;-89
2022/10/06 09:47:49;;;;;;;4.70;4.35;;;19.30;50.10;;;;;;20604;6838;306117;-87
2022/10/06 09:50:21;;;;;;;4.72;4.07;;;19.60;50.00;;;;;;20806;6838;118321;-87
2022/10/06 09:52:56;;;;;;;5.10;4.10;;;19.60;49.90;;;;;;20817;6838;116877;-89
2022/10/06 09:55:22;;;;;;;4.10;3.80;;;19.60;50.30;;;;;;20815;6838;121184;-89
2022/10/06 09:57:48;;;;;;;4.32;4.03;;;19.60;50.50;;;;;;20799;6838;121090;-89
2022/10/06 10:00:30;;;;;;;5.90;3.87;;;19.60;50.60;;;;;;20757;6838;117369;-88
2022/10/06 10:02:56;;;;;;;4.00;3.70;;;19.60;50.50;;;;;;20819;6838;67807;-86
2022/10/06 10:05:22;;;;;;;4.20;3.90;;;19.70;50.70;;;;;;20729;6836;116301;-91
2022/10/06 10:07:47;;;;;;;6.60;4.10;;;19.80;50.70;;;;;;20814;6837;116877;-86
2022/10/06 10:10:22;;;;;;;3.90;3.70;;;19.80;50.80;;;;;;20749;6838;116907;-87
2022/10/06 10:12:48;;;;;;;4.17;3.53;;;20.00;50.80;;;;;;20590;6838;323613;-87
2022/10/06 10:15:17;;;;;;;3.83;3.50;;;20.30;49.40;;;;;;20781;6838;117113;-82
2022/10/06 10:17:56;;;;;;;3.80;3.42;;;20.60;49.30;;;;;;20597;6838;309791;-85
2022/10/06 10:20:33;;;;;;;4.07;3.67;;;20.90;47.90;;;;;;20822;6838;67836;-85
2022/10/06 10:22:58;;;;;;;4.50;4.10;;;21.10;48.20;;;;;;20804;6838;116061;-85
2022/10/06 10:25:52;;;;;;;3.97;3.60;;;21.10;48.40;;;;;;20762;6838;116304;-85
2022/10/06 10:28:19;;;;;;;3.42;3.12;;;21.20;48.60;;;;;;20548;6838;336480;-85
2022/10/06 10:30:51;;;;;;;3.43;3.23;;;21.50;47.60;;;;;;20788;6838;122381;-85
2022/10/06 10:33:26;;;;;;;6.73;3.47;;;21.70;47.70;;;;;;20799;6838;119432;-85
2022/10/06 10:35:52;;;;;;;3.30;3.00;;;21.60;47.90;;;;;;20556;6838;337095;-86
2022/10/06 10:38:18;;;;;;;3.03;2.83;;;21.80;47.20;;;;;;20794;6838;117911;-87
2022/10/06 10:40:50;;;;;;;3.33;3.03;;;21.80;47.40;;;;;;20610;6838;277388;-85
2022/10/06 10:43:22;;;;;;;5.00;3.00;;;21.90;46.30;;;;;;20607;6838;307030;-87
2022/10/06 10:45:52;;;;;;;5.23;2.97;;;22.10;46.90;;;;;;20785;6838;116289;-86
2022/10/06 10:48:17;;;;;;;3.90;2.97;;;22.10;47.10;;;;;;20785;6838;116972;-86
2022/10/06 10:50:50;;;;;;;3.60;2.80;;;22.00;47.50;;;;;;20585;6838;336203;-87
2022/10/06 10:53:19;;;;;;;6.20;2.70;;;22.20;46.00;;;;;;20530;6838;280919;-87
2022/10/06 10:55:46;;;;;;;4.85;2.55;;;22.60;45.60;;;;;;20560;6838;322469;-87
2022/10/06 10:58:27;;;;;;;2.80;2.20;;;23.00;45.20;;;;;;20814;6838;115977;-87
2022/10/06 11:00:56;;;;;;;3.83;2.00;;;23.00;45.10;;;;;;20814;6838;116234;-88
2022/10/06 11:03:21;;;;;;;3.37;2.10;;;22.80;45.20;;;;;;20456;6838;116436;-87
2022/10/06 11:06:20;;;;;;;4.00;2.63;;;22.60;45.60;;;;;;20755;6838;117193;-87
2022/10/06 11:09:02;;;;;;;3.10;2.20;;;22.50;46.20;;;;;;20707;6838;117908;-87
2022/10/06 11:11:55;;;;;;;2.20;2.00;;;22.40;46.30;;;;;;20684;6838;117469;-86
2022/10/06 11:14:34;;;;;;;3.23;2.37;;;22.40;46.60;;;;;;20678;6838;116857;-87
2022/10/06 11:17:12;;;;;;;2.43;2.10;;;22.30;46.40;;;;;;20746;6836;116712;-87
2022/10/06 11:19:58;;;;;;;2.87;2.65;;;22.20;46.00;;;;;;20538;6837;341361;-88
2022/10/06 11:22:43;;;;;;;2.30;2.10;;;22.30;44.40;;;;;;20721;6838;117268;-88
2022/10/06 11:25:18;;;;;;;2.70;2.37;;;22.20;44.80;;;;;;20729;6838;117348;-88
2022/10/06 11:27:43;;;;;;;2.67;1.97;;;21.90;45.90;;;;;;20709;6838;120601;-88
2022/10/06 11:30:18;;;;;;;4.00;2.03;;;21.90;45.90;;;;;;20470;6838;307853;-87
2022/10/06 11:32:46;;;;;;;3.20;1.83;;;22.20;45.20;;;;;;20737;6838;121219;-87
2022/10/06 11:35:18;;;;;;;4.50;2.10;;;22.20;45.10;;;;;;20728;6838;117206;-87
2022/10/06 11:37:50;;;;;;;2.33;2.00;;;22.00;45.20;;;;;;20489;6838;307498;-86
2022/10/06 11:40:36;;;;;;;2.85;1.90;;;22.20;44.70;;;;;;20525;6838;327608;-87
2022/10/06 11:43:07;;;;;;;3.60;1.97;;;22.50;44.40;;;;;;20757;6838;117301;-87
2022/10/06 11:45:58;;;;;;;3.10;2.10;;;22.50;44.80;;;;;;20519;6838;309948;-87
2022/10/06 11:48:22;;;;;;;3.73;2.10;;;22.60;44.70;;;;;;20412;6838;117625;-86
2022/10/06 11:50:54;;;;;;;2.03;1.80;;;22.60;44.70;;;;;;20745;6838;120348;-86
2022/10/06 11:53:35;;;;;;;3.58;2.30;;;22.50;45.10;;;;;;20526;6838;309783;-88
2022/10/06 11:56:17;;;;;;;1.87;1.77;;;22.60;44.00;;;;;;20514;6838;309311;-89
2022/10/06 11:58:56;;;;;;;1.90;1.70;;;22.80;43.50;;;;;;20748;6838;120522;-88
2022/10/06 12:01:46;;;;;;;2.60;1.83;;;22.80;44.10;;;;;;20744;6838;117228;-87
2022/10/06 12:04:15;;;;;;;2.50;1.50;;;22.50;44.50;;;;;;20707;6838;118444;-86
2022/10/06 12:06:47;;;;;;;2.70;1.70;;;22.40;45.00;;;;;;20747;6838;117167;-87
2022/10/06 12:09:24;;;;;;;2.33;1.60;;;22.30;45.00;;;;;;20497;6838;314776;-87
2022/10/06 12:12:06;;;;;;;3.13;2.30;;;22.60;44.00;;;;;;19914;6838;122544;-89
2022/10/06 12:14:55;;;;;;;2.33;1.70;;;22.70;44.10;;;;;;20534;6838;278425;-88
2022/10/06 12:17:40;;;;;;;1.97;1.77;;;22.90;43.30;;;;;;20526;6838;309045;-88
2022/10/06 12:20:16;;;;;;;1.97;1.73;;;23.30;42.60;;;;;;20734;6838;117545;-89
2022/10/06 12:22:51;;;;;;;3.73;1.83;;;23.20;43.10;;;;;;20739;6838;117607;-89
2022/10/06 12:25:20;;;;;;;5.93;2.00;;;23.00;43.50;;;;;;20724;6838;117436;-91
2022/10/06 12:27:52;;;;;;;2.83;1.87;;;22.60;43.80;;;;;;20737;6836;117444;-90
2022/10/06 12:30:18;;;;;;;2.40;1.60;;;22.60;43.80;;;;;;20720;6837;118025;-91
2022/10/06 12:32:46;;;;;;;3.07;1.80;;;22.40;44.00;;;;;;20521;6838;336820;-89
2022/10/06 12:35:19;;;;;;;2.47;1.83;;;22.50;43.30;;;;;;20735;6838;117010;-88
2022/10/06 12:37:45;;;;;;;2.57;1.90;;;22.40;43.70;;;;;;20727;6838;117063;-89
2022/10/06 12:40:39;;;;;;;2.90;1.57;;;22.10;44.10;;;;;;20483;6838;319783;-89
2022/10/06 12:43:13;;;;;;;5.90;2.00;;;22.20;44.00;;;;;;20533;6838;312298;-89
2022/10/06 12:45:37;;;;;;;3.28;1.90;;;22.50;43.50;;;;;;20522;6838;309391;-88
2022/10/06 12:48:02;;;;;;;9.82;3.30;;;22.70;43.30;;;;;;20505;6838;280855;-89
2022/10/06 12:50:28;;;;;;;11.95;3.50;;;22.90;42.90;;;;;;20530;6838;308186;-88
2022/10/06 12:52:57;;;;;;;5.47;2.60;;;23.00;42.50;;;;;;20517;6838;306623;-89
2022/10/06 12:55:26;;;;;;;5.10;2.77;;;23.10;42.40;;;;;;20694;6838;119955;-89
2022/10/06 12:57:52;;;;;;;4.73;1.90;;;22.90;43.00;;;;;;20704;6838;118616;-89